sensor_id;sensor_type;location;lat;lon;timestamp;P1;durP1;ratioP1;P2;durP2;ratioP2
54641;SDS011;40536;53.194;5.728;2023-06-10T00:00:12;14.73;;;13.15;;
54641;SDS011;40536;53.194;5.728;2023-06-10T00:02:40;18.15;;;16.50;;
54641;SDS011;40536;53.194;5.728;2023-06-10T00:05:06;15.60;;;10.77;;
54641;SDS011;40536;53.194;5.728;2023-06-10T00:07:36;13.95;;;11.20;;
54641;SDS011;40536;53.194;5.728;2023-06-10T00:10:06;12.15;;;10.60;;
54641;SDS011;40536;53.194;5.728;2023-06-10T00:12:32;14.77;;;11.13;;
54641;SDS011;40536;53.194;5.728;2023-06-10T00:15:02;13.65;;;11.55;;
54641;SDS011;40536;53.194;5.728;2023-06-10T00:17:31;13.57;;;10.13;;
54641;SDS011;40536;53.194;5.728;2023-06-10T00:19:58;15.68;;;12.07;;
54641;SDS011;40536;53.194;5.728;2023-06-10T00:22:23;12.82;;;10.30;;
54641;SDS011;40536;53.194;5.728;2023-06-10T00:24:54;12.48;;;11.07;;
54641;SDS011;40536;53.194;5.728;2023-06-10T00:27:21;14.18;;;12.68;;
54641;SDS011;40536;53.194;5.728;2023-06-10T00:29:47;13.75;;;12.35;;
54641;SDS011;40536;53.194;5.728;2023-06-10T00:32:13;18.35;;;11.40;;
54641;SDS011;40536;53.194;5.728;2023-06-10T00:34:38;12.60;;;11.02;;
54641;SDS011;40536;53.194;5.728;2023-06-10T00:37:04;13.30;;;10.82;;
54641;SDS011;40536;53.194;5.728;2023-06-10T00:39:30;14.65;;;10.73;;
54641;SDS011;40536;53.194;5.728;2023-06-10T00:41:56;14.65;;;12.50;;
54641;SDS011;40536;53.194;5.728;2023-06-10T00:44:21;14.50;;;13.15;;
54641;SDS011;40536;53.194;5.728;2023-06-10T00:46:47;12.60;;;11.35;;
54641;SDS011;40536;53.194;5.728;2023-06-10T00:49:16;13.30;;;11.05;;
54641;SDS011;40536;53.194;5.728;2023-06-10T00:51:42;13.18;;;10.63;;
54641;SDS011;40536;53.194;5.728;2023-06-10T00:54:07;13.65;;;12.13;;
54641;SDS011;40536;53.194;5.728;2023-06-10T00:56:34;15.77;;;12.57;;
54641;SDS011;40536;53.194;5.728;2023-06-10T00:59:01;13.23;;;11.38;;
54641;SDS011;40536;53.194;5.728;2023-06-10T01:01:28;15.77;;;12.00;;
54641;SDS011;40536;53.194;5.728;2023-06-10T01:03:54;16.98;;;11.98;;
54641;SDS011;40536;53.194;5.728;2023-06-10T01:09:03;14.93;;;13.52;;
54641;SDS011;40536;53.194;5.728;2023-06-10T01:14:40;15.93;;;13.38;;
54641;SDS011;40536;53.194;5.728;2023-06-10T01:17:10;13.98;;;11.00;;
54641;SDS011;40536;53.194;5.728;2023-06-10T01:19:36;14.55;;;11.02;;
54641;SDS011;40536;53.194;5.728;2023-06-10T01:22:02;13.77;;;10.70;;
54641;SDS011;40536;53.194;5.728;2023-06-10T01:24:29;13.48;;;12.02;;
54641;SDS011;40536;53.194;5.728;2023-06-10T01:26:58;18.90;;;12.52;;
54641;SDS011;40536;53.194;5.728;2023-06-10T01:29:28;14.70;;;11.13;;
54641;SDS011;40536;53.194;5.728;2023-06-10T01:32:07;14.63;;;11.27;;
54641;SDS011;40536;53.194;5.728;2023-06-10T01:34:39;16.67;;;11.10;;
54641;SDS011;40536;53.194;5.728;2023-06-10T01:37:09;13.20;;;11.48;;
54641;SDS011;40536;53.194;5.728;2023-06-10T01:39:38;11.32;;;10.13;;
54641;SDS011;40536;53.194;5.728;2023-06-10T01:42:04;17.02;;;12.55;;
54641;SDS011;40536;53.194;5.728;2023-06-10T01:44:31;16.05;;;11.10;;
54641;SDS011;40536;53.194;5.728;2023-06-10T01:46:57;13.15;;;10.75;;
54641;SDS011;40536;53.194;5.728;2023-06-10T01:49:23;15.93;;;10.63;;
54641;SDS011;40536;53.194;5.728;2023-06-10T01:51:49;13.63;;;11.02;;
54641;SDS011;40536;53.194;5.728;2023-06-10T01:54:14;13.43;;;10.27;;
54641;SDS011;40536;53.194;5.728;2023-06-10T01:56:43;15.35;;;10.70;;
54641;SDS011;40536;53.194;5.728;2023-06-10T01:59:09;14.80;;;10.82;;
54641;SDS011;40536;53.194;5.728;2023-06-10T02:01:34;11.88;;;9.73;;
54641;SDS011;40536;53.194;5.728;2023-06-10T02:04:00;13.45;;;10.30;;
54641;SDS011;40536;53.194;5.728;2023-06-10T02:06:25;17.55;;;10.90;;
54641;SDS011;40536;53.194;5.728;2023-06-10T02:08:51;14.35;;;10.73;;
54641;SDS011;40536;53.194;5.728;2023-06-10T02:11:17;13.80;;;11.73;;
54641;SDS011;40536;53.194;5.728;2023-06-10T02:13:42;13.15;;;11.80;;
54641;SDS011;40536;53.194;5.728;2023-06-10T02:16:08;13.02;;;10.82;;
54641;SDS011;40536;53.194;5.728;2023-06-10T02:18:37;16.00;;;11.80;;
54641;SDS011;40536;53.194;5.728;2023-06-10T02:21:05;13.63;;;12.23;;
54641;SDS011;40536;53.194;5.728;2023-06-10T02:23:32;13.20;;;12.00;;
54641;SDS011;40536;53.194;5.728;2023-06-10T02:25:57;13.07;;;11.68;;
54641;SDS011;40536;53.194;5.728;2023-06-10T02:28:23;15.75;;;14.10;;
54641;SDS011;40536;53.194;5.728;2023-06-10T02:30:49;14.85;;;13.13;;
54641;SDS011;40536;53.194;5.728;2023-06-10T02:33:17;15.80;;;14.20;;
54641;SDS011;40536;53.194;5.728;2023-06-10T02:35:42;15.48;;;13.80;;
54641;SDS011;40536;53.194;5.728;2023-06-10T02:38:08;16.00;;;14.32;;
54641;SDS011;40536;53.194;5.728;2023-06-10T02:40:34;16.08;;;14.63;;
54641;SDS011;40536;53.194;5.728;2023-06-10T02:42:59;16.60;;;15.00;;
54641;SDS011;40536;53.194;5.728;2023-06-10T02:45:25;17.40;;;15.65;;
54641;SDS011;40536;53.194;5.728;2023-06-10T02:47:51;18.88;;;17.08;;
54641;SDS011;40536;53.194;5.728;2023-06-10T02:50:16;18.13;;;16.42;;
54641;SDS011;40536;53.194;5.728;2023-06-10T02:52:42;19.30;;;17.70;;
54641;SDS011;40536;53.194;5.728;2023-06-10T02:55:08;19.55;;;17.55;;
54641;SDS011;40536;53.194;5.728;2023-06-10T02:57:34;20.40;;;18.52;;
54641;SDS011;40536;53.194;5.728;2023-06-10T03:00:00;20.98;;;19.15;;
54641;SDS011;40536;53.194;5.728;2023-06-10T03:02:26;23.02;;;21.17;;
54641;SDS011;40536;53.194;5.728;2023-06-10T03:04:56;23.45;;;21.52;;
54641;SDS011;40536;53.194;5.728;2023-06-10T03:07:22;24.23;;;22.42;;
54641;SDS011;40536;53.194;5.728;2023-06-10T03:09:48;22.98;;;21.15;;
54641;SDS011;40536;53.194;5.728;2023-06-10T03:12:14;27.45;;;23.63;;
54641;SDS011;40536;53.194;5.728;2023-06-10T03:14:41;28.55;;;26.08;;
54641;SDS011;40536;53.194;5.728;2023-06-10T03:17:07;27.45;;;25.50;;
54641;SDS011;40536;53.194;5.728;2023-06-10T03:19:33;25.15;;;23.38;;
54641;SDS011;40536;53.194;5.728;2023-06-10T03:22:16;22.98;;;20.80;;
54641;SDS011;40536;53.194;5.728;2023-06-10T03:24:42;21.27;;;19.38;;
54641;SDS011;40536;53.194;5.728;2023-06-10T03:27:11;24.67;;;22.88;;
54641;SDS011;40536;53.194;5.728;2023-06-10T03:29:38;24.08;;;22.23;;
54641;SDS011;40536;53.194;5.728;2023-06-10T03:32:04;23.70;;;21.70;;
54641;SDS011;40536;53.194;5.728;2023-06-10T03:34:30;24.17;;;22.25;;
54641;SDS011;40536;53.194;5.728;2023-06-10T03:36:56;25.50;;;23.65;;
54641;SDS011;40536;53.194;5.728;2023-06-10T03:39:22;27.08;;;24.38;;
54641;SDS011;40536;53.194;5.728;2023-06-10T03:41:48;21.25;;;19.27;;
54641;SDS011;40536;53.194;5.728;2023-06-10T03:44:15;20.42;;;18.50;;
54641;SDS011;40536;53.194;5.728;2023-06-10T03:46:40;23.00;;;21.15;;
54641;SDS011;40536;53.194;5.728;2023-06-10T03:49:06;21.40;;;19.58;;
54641;SDS011;40536;53.194;5.728;2023-06-10T03:51:32;21.90;;;19.80;;
54641;SDS011;40536;53.194;5.728;2023-06-10T03:53:57;20.23;;;18.52;;
54641;SDS011;40536;53.194;5.728;2023-06-10T03:56:23;24.30;;;22.40;;
54641;SDS011;40536;53.194;5.728;2023-06-10T03:58:49;24.13;;;22.20;;
54641;SDS011;40536;53.194;5.728;2023-06-10T04:01:14;21.52;;;19.55;;
54641;SDS011;40536;53.194;5.728;2023-06-10T04:03:43;21.48;;;19.65;;
54641;SDS011;40536;53.194;5.728;2023-06-10T04:06:09;28.33;;;26.23;;
54641;SDS011;40536;53.194;5.728;2023-06-10T04:08:34;24.83;;;22.77;;
54641;SDS011;40536;53.194;5.728;2023-06-10T04:11:01;25.08;;;23.27;;
54641;SDS011;40536;53.194;5.728;2023-06-10T04:13:27;26.88;;;24.85;;
54641;SDS011;40536;53.194;5.728;2023-06-10T04:15:53;27.10;;;24.92;;
54641;SDS011;40536;53.194;5.728;2023-06-10T04:18:19;27.17;;;25.30;;
54641;SDS011;40536;53.194;5.728;2023-06-10T04:20:46;31.73;;;29.60;;
54641;SDS011;40536;53.194;5.728;2023-06-10T04:23:12;37.33;;;34.97;;
54641;SDS011;40536;53.194;5.728;2023-06-10T04:25:38;40.63;;;38.10;;
54641;SDS011;40536;53.194;5.728;2023-06-10T04:28:03;37.17;;;34.95;;
54641;SDS011;40536;53.194;5.728;2023-06-10T04:30:29;37.40;;;34.83;;
54641;SDS011;40536;53.194;5.728;2023-06-10T04:32:56;35.92;;;33.47;;
54641;SDS011;40536;53.194;5.728;2023-06-10T04:35:22;32.50;;;30.45;;
54641;SDS011;40536;53.194;5.728;2023-06-10T04:37:48;30.30;;;28.35;;
54641;SDS011;40536;53.194;5.728;2023-06-10T04:40:14;31.05;;;28.90;;
54641;SDS011;40536;53.194;5.728;2023-06-10T04:42:41;28.00;;;25.70;;
54641;SDS011;40536;53.194;5.728;2023-06-10T04:45:07;25.60;;;23.60;;
54641;SDS011;40536;53.194;5.728;2023-06-10T04:47:33;27.60;;;25.67;;
54641;SDS011;40536;53.194;5.728;2023-06-10T04:49:59;23.73;;;21.85;;
54641;SDS011;40536;53.194;5.728;2023-06-10T04:52:25;23.63;;;21.73;;
54641;SDS011;40536;53.194;5.728;2023-06-10T04:54:52;23.77;;;22.08;;
54641;SDS011;40536;53.194;5.728;2023-06-10T04:57:18;23.75;;;21.77;;
54641;SDS011;40536;53.194;5.728;2023-06-10T04:59:45;21.77;;;20.10;;
54641;SDS011;40536;53.194;5.728;2023-06-10T05:02:11;20.90;;;19.38;;
54641;SDS011;40536;53.194;5.728;2023-06-10T05:04:36;20.88;;;19.13;;
54641;SDS011;40536;53.194;5.728;2023-06-10T05:07:02;16.58;;;15.15;;
54641;SDS011;40536;53.194;5.728;2023-06-10T05:09:28;19.02;;;17.15;;
54641;SDS011;40536;53.194;5.728;2023-06-10T05:11:54;15.50;;;14.13;;
54641;SDS011;40536;53.194;5.728;2023-06-10T05:14:20;19.73;;;18.02;;
54641;SDS011;40536;53.194;5.728;2023-06-10T05:16:47;17.75;;;16.30;;
54641;SDS011;40536;53.194;5.728;2023-06-10T05:19:13;16.20;;;14.65;;
54641;SDS011;40536;53.194;5.728;2023-06-10T05:21:41;15.48;;;13.95;;
54641;SDS011;40536;53.194;5.728;2023-06-10T05:24:07;21.35;;;19.35;;
54641;SDS011;40536;53.194;5.728;2023-06-10T05:26:33;14.02;;;12.40;;
54641;SDS011;40536;53.194;5.728;2023-06-10T05:29:02;16.30;;;13.23;;
54641;SDS011;40536;53.194;5.728;2023-06-10T05:31:28;17.45;;;15.95;;
54641;SDS011;40536;53.194;5.728;2023-06-10T05:33:54;20.05;;;18.38;;
54641;SDS011;40536;53.194;5.728;2023-06-10T05:36:19;25.52;;;23.73;;
54641;SDS011;40536;53.194;5.728;2023-06-10T05:38:45;24.13;;;22.08;;
54641;SDS011;40536;53.194;5.728;2023-06-10T05:41:11;27.35;;;25.17;;
54641;SDS011;40536;53.194;5.728;2023-06-10T05:43:37;26.73;;;24.85;;
54641;SDS011;40536;53.194;5.728;2023-06-10T05:46:02;30.33;;;28.33;;
54641;SDS011;40536;53.194;5.728;2023-06-10T05:48:28;24.73;;;22.63;;
54641;SDS011;40536;53.194;5.728;2023-06-10T05:50:54;24.48;;;22.42;;
54641;SDS011;40536;53.194;5.728;2023-06-10T05:53:19;25.02;;;22.92;;
54641;SDS011;40536;53.194;5.728;2023-06-10T05:55:45;21.08;;;19.27;;
54641;SDS011;40536;53.194;5.728;2023-06-10T05:58:12;17.20;;;15.07;;
54641;SDS011;40536;53.194;5.728;2023-06-10T06:00:39;15.38;;;13.95;;
54641;SDS011;40536;53.194;5.728;2023-06-10T06:03:08;16.42;;;14.80;;
54641;SDS011;40536;53.194;5.728;2023-06-10T06:05:35;13.82;;;12.52;;
54641;SDS011;40536;53.194;5.728;2023-06-10T06:08:03;16.27;;;14.48;;
54641;SDS011;40536;53.194;5.728;2023-06-10T06:10:29;16.40;;;14.85;;
54641;SDS011;40536;53.194;5.728;2023-06-10T06:12:55;18.20;;;16.63;;
54641;SDS011;40536;53.194;5.728;2023-06-10T06:15:21;17.83;;;16.13;;
54641;SDS011;40536;53.194;5.728;2023-06-10T06:17:46;17.42;;;15.95;;
54641;SDS011;40536;53.194;5.728;2023-06-10T06:20:12;15.75;;;14.27;;
54641;SDS011;40536;53.194;5.728;2023-06-10T06:22:38;16.92;;;15.30;;
54641;SDS011;40536;53.194;5.728;2023-06-10T06:25:04;19.73;;;17.92;;
54641;SDS011;40536;53.194;5.728;2023-06-10T06:27:30;25.33;;;22.98;;
54641;SDS011;40536;53.194;5.728;2023-06-10T06:29:56;21.20;;;19.42;;
54641;SDS011;40536;53.194;5.728;2023-06-10T06:32:22;21.80;;;19.92;;
54641;SDS011;40536;53.194;5.728;2023-06-10T06:34:50;17.02;;;15.30;;
54641;SDS011;40536;53.194;5.728;2023-06-10T06:37:20;15.10;;;13.50;;
54641;SDS011;40536;53.194;5.728;2023-06-10T06:39:47;16.65;;;15.05;;
54641;SDS011;40536;53.194;5.728;2023-06-10T06:42:13;22.77;;;21.10;;
54641;SDS011;40536;53.194;5.728;2023-06-10T06:44:39;17.75;;;16.27;;
54641;SDS011;40536;53.194;5.728;2023-06-10T06:47:05;18.85;;;17.05;;
54641;SDS011;40536;53.194;5.728;2023-06-10T06:49:31;19.58;;;16.40;;
54641;SDS011;40536;53.194;5.728;2023-06-10T06:51:56;20.92;;;19.30;;
54641;SDS011;40536;53.194;5.728;2023-06-10T06:54:22;23.15;;;21.30;;
54641;SDS011;40536;53.194;5.728;2023-06-10T06:56:47;20.42;;;18.80;;
54641;SDS011;40536;53.194;5.728;2023-06-10T06:59:13;21.15;;;19.20;;
54641;SDS011;40536;53.194;5.728;2023-06-10T07:01:39;23.27;;;21.52;;
54641;SDS011;40536;53.194;5.728;2023-06-10T07:04:04;20.63;;;19.00;;
54641;SDS011;40536;53.194;5.728;2023-06-10T07:06:30;24.70;;;22.85;;
54641;SDS011;40536;53.194;5.728;2023-06-10T07:08:56;21.77;;;20.13;;
54641;SDS011;40536;53.194;5.728;2023-06-10T07:11:22;22.75;;;21.25;;
54641;SDS011;40536;53.194;5.728;2023-06-10T07:13:48;17.98;;;16.65;;
54641;SDS011;40536;53.194;5.728;2023-06-10T07:16:14;18.65;;;17.30;;
54641;SDS011;40536;53.194;5.728;2023-06-10T07:18:40;17.88;;;16.45;;
54641;SDS011;40536;53.194;5.728;2023-06-10T07:21:05;18.88;;;17.27;;
54641;SDS011;40536;53.194;5.728;2023-06-10T07:23:31;18.73;;;17.23;;
54641;SDS011;40536;53.194;5.728;2023-06-10T07:25:56;14.07;;;12.77;;
54641;SDS011;40536;53.194;5.728;2023-06-10T07:28:23;14.65;;;13.32;;
54641;SDS011;40536;53.194;5.728;2023-06-10T07:30:49;14.45;;;13.02;;
54641;SDS011;40536;53.194;5.728;2023-06-10T07:33:14;14.85;;;13.60;;
54641;SDS011;40536;53.194;5.728;2023-06-10T07:35:40;16.42;;;13.48;;
54641;SDS011;40536;53.194;5.728;2023-06-10T07:38:08;11.63;;;10.52;;
54641;SDS011;40536;53.194;5.728;2023-06-10T07:40:33;13.88;;;11.50;;
54641;SDS011;40536;53.194;5.728;2023-06-10T07:42:59;12.40;;;11.20;;
54641;SDS011;40536;53.194;5.728;2023-06-10T07:45:25;11.35;;;10.15;;
54641;SDS011;40536;53.194;5.728;2023-06-10T07:47:50;11.95;;;9.90;;
54641;SDS011;40536;53.194;5.728;2023-06-10T07:50:16;10.55;;;9.50;;
54641;SDS011;40536;53.194;5.728;2023-06-10T07:52:43;10.90;;;9.30;;
54641;SDS011;40536;53.194;5.728;2023-06-10T07:55:08;11.23;;;9.07;;
54641;SDS011;40536;53.194;5.728;2023-06-10T07:57:34;11.50;;;8.90;;
54641;SDS011;40536;53.194;5.728;2023-06-10T08:00:02;10.77;;;8.57;;
54641;SDS011;40536;53.194;5.728;2023-06-10T08:02:29;11.55;;;9.02;;
54641;SDS011;40536;53.194;5.728;2023-06-10T08:04:55;11.27;;;8.98;;
54641;SDS011;40536;53.194;5.728;2023-06-10T08:07:21;10.93;;;9.50;;
54641;SDS011;40536;53.194;5.728;2023-06-10T08:09:47;11.68;;;10.07;;
54641;SDS011;40536;53.194;5.728;2023-06-10T08:12:12;10.65;;;9.10;;
54641;SDS011;40536;53.194;5.728;2023-06-10T08:14:38;9.93;;;8.80;;
54641;SDS011;40536;53.194;5.728;2023-06-10T08:17:04;9.30;;;8.35;;
54641;SDS011;40536;53.194;5.728;2023-06-10T08:19:31;11.80;;;9.13;;
54641;SDS011;40536;53.194;5.728;2023-06-10T08:21:57;11.25;;;9.05;;
54641;SDS011;40536;53.194;5.728;2023-06-10T08:24:22;11.30;;;9.93;;
54641;SDS011;40536;53.194;5.728;2023-06-10T08:26:48;10.30;;;8.70;;
54641;SDS011;40536;53.194;5.728;2023-06-10T08:29:14;9.98;;;8.60;;
54641;SDS011;40536;53.194;5.728;2023-06-10T08:31:43;10.07;;;7.68;;
54641;SDS011;40536;53.194;5.728;2023-06-10T08:34:09;10.50;;;8.85;;
54641;SDS011;40536;53.194;5.728;2023-06-10T08:36:35;11.82;;;8.18;;
54641;SDS011;40536;53.194;5.728;2023-06-10T08:39:01;9.35;;;8.40;;
54641;SDS011;40536;53.194;5.728;2023-06-10T08:41:28;9.90;;;8.73;;
54641;SDS011;40536;53.194;5.728;2023-06-10T08:46:34;9.65;;;8.65;;
54641;SDS011;40536;53.194;5.728;2023-06-10T08:49:02;11.15;;;9.35;;
54641;SDS011;40536;53.194;5.728;2023-06-10T08:51:32;14.02;;;8.65;;
54641;SDS011;40536;53.194;5.728;2023-06-10T08:54:08;9.45;;;8.50;;
54641;SDS011;40536;53.194;5.728;2023-06-10T08:56:44;9.90;;;8.88;;
54641;SDS011;40536;53.194;5.728;2023-06-10T08:59:13;9.18;;;8.27;;
54641;SDS011;40536;53.194;5.728;2023-06-10T09:01:41;10.23;;;8.20;;
54641;SDS011;40536;53.194;5.728;2023-06-10T09:04:11;9.32;;;8.35;;
54641;SDS011;40536;53.194;5.728;2023-06-10T09:06:37;10.27;;;7.53;;
54641;SDS011;40536;53.194;5.728;2023-06-10T09:09:04;9.90;;;8.25;;
54641;SDS011;40536;53.194;5.728;2023-06-10T09:11:32;9.43;;;8.32;;
54641;SDS011;40536;53.194;5.728;2023-06-10T09:13:58;9.40;;;8.52;;
54641;SDS011;40536;53.194;5.728;2023-06-10T09:16:26;10.80;;;9.32;;
54641;SDS011;40536;53.194;5.728;2023-06-10T09:18:52;12.55;;;8.40;;
54641;SDS011;40536;53.194;5.728;2023-06-10T09:21:23;10.30;;;9.27;;
54641;SDS011;40536;53.194;5.728;2023-06-10T09:23:50;13.73;;;8.98;;
54641;SDS011;40536;53.194;5.728;2023-06-10T09:26:16;10.38;;;9.00;;
54641;SDS011;40536;53.194;5.728;2023-06-10T09:28:43;9.57;;;8.57;;
54641;SDS011;40536;53.194;5.728;2023-06-10T09:31:12;10.27;;;8.23;;
54641;SDS011;40536;53.194;5.728;2023-06-10T09:33:39;8.85;;;7.80;;
54641;SDS011;40536;53.194;5.728;2023-06-10T09:36:05;10.10;;;9.20;;
54641;SDS011;40536;53.194;5.728;2023-06-10T09:38:33;11.82;;;10.63;;
54641;SDS011;40536;53.194;5.728;2023-06-10T09:41:00;10.25;;;9.30;;
54641;SDS011;40536;53.194;5.728;2023-06-10T09:43:41;11.00;;;9.90;;
54641;SDS011;40536;53.194;5.728;2023-06-10T09:46:18;9.75;;;8.48;;
54641;SDS011;40536;53.194;5.728;2023-06-10T09:48:45;9.00;;;8.15;;
54641;SDS011;40536;53.194;5.728;2023-06-10T09:51:15;9.60;;;8.52;;
54641;SDS011;40536;53.194;5.728;2023-06-10T09:53:47;9.27;;;8.37;;
54641;SDS011;40536;53.194;5.728;2023-06-10T09:56:14;9.73;;;8.83;;
54641;SDS011;40536;53.194;5.728;2023-06-10T09:58:40;11.02;;;9.90;;
54641;SDS011;40536;53.194;5.728;2023-06-10T10:01:09;10.13;;;8.57;;
54641;SDS011;40536;53.194;5.728;2023-06-10T10:06:11;12.68;;;9.52;;
54641;SDS011;40536;53.194;5.728;2023-06-10T10:08:37;10.57;;;8.98;;
54641;SDS011;40536;53.194;5.728;2023-06-10T10:11:03;10.00;;;9.00;;
54641;SDS011;40536;53.194;5.728;2023-06-10T10:13:29;16.60;;;9.40;;
54641;SDS011;40536;53.194;5.728;2023-06-10T10:16:04;10.27;;;9.27;;
54641;SDS011;40536;53.194;5.728;2023-06-10T10:18:39;9.63;;;8.63;;
54641;SDS011;40536;53.194;5.728;2023-06-10T10:21:11;9.27;;;8.48;;
54641;SDS011;40536;53.194;5.728;2023-06-10T10:23:45;10.18;;;8.20;;
54641;SDS011;40536;53.194;5.728;2023-06-10T10:26:33;10.38;;;8.05;;
54641;SDS011;40536;53.194;5.728;2023-06-10T10:29:05;11.82;;;9.70;;
54641;SDS011;40536;53.194;5.728;2023-06-10T10:31:35;11.68;;;10.48;;
54641;SDS011;40536;53.194;5.728;2023-06-10T10:34:04;12.50;;;10.40;;
54641;SDS011;40536;53.194;5.728;2023-06-10T10:36:34;10.43;;;9.30;;
54641;SDS011;40536;53.194;5.728;2023-06-10T10:39:01;9.55;;;8.65;;
54641;SDS011;40536;53.194;5.728;2023-06-10T10:41:28;8.93;;;8.02;;
54641;SDS011;40536;53.194;5.728;2023-06-10T10:43:55;12.45;;;8.07;;
54641;SDS011;40536;53.194;5.728;2023-06-10T10:46:21;10.85;;;8.63;;
54641;SDS011;40536;53.194;5.728;2023-06-10T10:48:51;9.57;;;8.55;;
54641;SDS011;40536;53.194;5.728;2023-06-10T10:51:19;9.20;;;8.40;;
54641;SDS011;40536;53.194;5.728;2023-06-10T10:56:35;10.98;;;9.23;;
54641;SDS011;40536;53.194;5.728;2023-06-10T10:59:04;9.95;;;7.70;;
54641;SDS011;40536;53.194;5.728;2023-06-10T11:01:40;9.93;;;9.00;;
54641;SDS011;40536;53.194;5.728;2023-06-10T11:04:07;10.88;;;9.82;;
54641;SDS011;40536;53.194;5.728;2023-06-10T11:06:36;11.68;;;8.68;;
54641;SDS011;40536;53.194;5.728;2023-06-10T11:09:24;11.75;;;9.93;;
54641;SDS011;40536;53.194;5.728;2023-06-10T11:11:50;11.15;;;10.02;;
54641;SDS011;40536;53.194;5.728;2023-06-10T11:14:16;11.23;;;10.02;;
54641;SDS011;40536;53.194;5.728;2023-06-10T11:16:57;10.18;;;9.02;;
54641;SDS011;40536;53.194;5.728;2023-06-10T11:19:37;9.23;;;8.35;;
54641;SDS011;40536;53.194;5.728;2023-06-10T11:22:06;9.23;;;8.32;;
54641;SDS011;40536;53.194;5.728;2023-06-10T11:24:33;11.68;;;8.60;;
54641;SDS011;40536;53.194;5.728;2023-06-10T11:27:14;9.23;;;8.48;;
54641;SDS011;40536;53.194;5.728;2023-06-10T11:32:33;9.18;;;8.27;;
54641;SDS011;40536;53.194;5.728;2023-06-10T11:35:00;9.60;;;8.52;;
54641;SDS011;40536;53.194;5.728;2023-06-10T11:37:29;11.70;;;8.77;;
54641;SDS011;40536;53.194;5.728;2023-06-10T11:39:55;10.02;;;9.10;;
54641;SDS011;40536;53.194;5.728;2023-06-10T11:42:21;8.68;;;7.85;;
54641;SDS011;40536;53.194;5.728;2023-06-10T11:44:51;12.25;;;8.27;;
54641;SDS011;40536;53.194;5.728;2023-06-10T11:47:18;8.52;;;7.63;;
54641;SDS011;40536;53.194;5.728;2023-06-10T11:49:44;8.93;;;8.13;;
54641;SDS011;40536;53.194;5.728;2023-06-10T11:52:10;10.23;;;8.30;;
54641;SDS011;40536;53.194;5.728;2023-06-10T11:54:36;9.57;;;8.68;;
54641;SDS011;40536;53.194;5.728;2023-06-10T11:57:03;9.02;;;8.07;;
54641;SDS011;40536;53.194;5.728;2023-06-10T11:59:29;9.70;;;8.02;;
54641;SDS011;40536;53.194;5.728;2023-06-10T12:01:55;14.30;;;13.00;;
54641;SDS011;40536;53.194;5.728;2023-06-10T12:04:21;14.07;;;12.80;;
54641;SDS011;40536;53.194;5.728;2023-06-10T12:06:50;18.08;;;16.20;;
54641;SDS011;40536;53.194;5.728;2023-06-10T12:11:59;21.35;;;19.73;;
54641;SDS011;40536;53.194;5.728;2023-06-10T12:17:35;22.08;;;20.48;;
54641;SDS011;40536;53.194;5.728;2023-06-10T12:20:03;19.90;;;18.23;;
54641;SDS011;40536;53.194;5.728;2023-06-10T12:22:45;18.92;;;17.52;;
54641;SDS011;40536;53.194;5.728;2023-06-10T12:25:10;21.80;;;19.90;;
54641;SDS011;40536;53.194;5.728;2023-06-10T12:27:37;20.65;;;18.95;;
54641;SDS011;40536;53.194;5.728;2023-06-10T12:30:05;25.67;;;23.90;;
54641;SDS011;40536;53.194;5.728;2023-06-10T12:32:44;20.48;;;18.58;;
54641;SDS011;40536;53.194;5.728;2023-06-10T12:35:12;17.90;;;16.50;;
54641;SDS011;40536;53.194;5.728;2023-06-10T12:37:39;13.85;;;12.32;;
54641;SDS011;40536;53.194;5.728;2023-06-10T12:40:06;14.75;;;13.40;;
54641;SDS011;40536;53.194;5.728;2023-06-10T12:42:34;17.92;;;16.52;;
54641;SDS011;40536;53.194;5.728;2023-06-10T12:45:01;20.85;;;18.45;;
54641;SDS011;40536;53.194;5.728;2023-06-10T12:47:31;17.33;;;12.68;;
54641;SDS011;40536;53.194;5.728;2023-06-10T12:52:26;17.45;;;15.82;;
54641;SDS011;40536;53.194;5.728;2023-06-10T12:54:52;18.13;;;16.45;;
54641;SDS011;40536;53.194;5.728;2023-06-10T12:57:19;14.38;;;13.07;;
54641;SDS011;40536;53.194;5.728;2023-06-10T12:59:45;15.65;;;14.02;;
54641;SDS011;40536;53.194;5.728;2023-06-10T13:02:15;15.43;;;14.13;;
54641;SDS011;40536;53.194;5.728;2023-06-10T13:04:43;18.75;;;17.27;;
54641;SDS011;40536;53.194;5.728;2023-06-10T13:07:09;16.27;;;14.57;;
54641;SDS011;40536;53.194;5.728;2023-06-10T13:09:35;16.25;;;14.75;;
54641;SDS011;40536;53.194;5.728;2023-06-10T13:12:04;14.15;;;12.52;;
54641;SDS011;40536;53.194;5.728;2023-06-10T13:14:31;20.48;;;15.02;;
54641;SDS011;40536;53.194;5.728;2023-06-10T13:16:56;24.30;;;17.35;;
54641;SDS011;40536;53.194;5.728;2023-06-10T13:19:22;15.05;;;13.68;;
54641;SDS011;40536;53.194;5.728;2023-06-10T13:21:48;15.13;;;13.35;;
54641;SDS011;40536;53.194;5.728;2023-06-10T13:24:13;16.45;;;14.95;;
54641;SDS011;40536;53.194;5.728;2023-06-10T13:26:39;16.55;;;14.88;;
54641;SDS011;40536;53.194;5.728;2023-06-10T13:29:05;17.15;;;14.95;;
54641;SDS011;40536;53.194;5.728;2023-06-10T13:31:32;19.08;;;16.95;;
54641;SDS011;40536;53.194;5.728;2023-06-10T13:33:58;14.45;;;12.98;;
54641;SDS011;40536;53.194;5.728;2023-06-10T13:36:24;27.48;;;15.25;;
54641;SDS011;40536;53.194;5.728;2023-06-10T13:38:50;17.13;;;15.70;;
54641;SDS011;40536;53.194;5.728;2023-06-10T13:41:16;16.58;;;13.90;;
54641;SDS011;40536;53.194;5.728;2023-06-10T13:43:42;16.40;;;14.98;;
54641;SDS011;40536;53.194;5.728;2023-06-10T13:46:07;16.33;;;14.90;;
54641;SDS011;40536;53.194;5.728;2023-06-10T13:48:33;17.50;;;15.80;;
54641;SDS011;40536;53.194;5.728;2023-06-10T13:50:59;18.45;;;15.80;;
54641;SDS011;40536;53.194;5.728;2023-06-10T13:53:25;15.60;;;14.20;;
54641;SDS011;40536;53.194;5.728;2023-06-10T13:55:50;18.70;;;14.70;;
54641;SDS011;40536;53.194;5.728;2023-06-10T13:58:16;18.02;;;15.50;;
54641;SDS011;40536;53.194;5.728;2023-06-10T14:00:42;17.25;;;15.63;;
54641;SDS011;40536;53.194;5.728;2023-06-10T14:03:07;14.88;;;13.20;;
54641;SDS011;40536;53.194;5.728;2023-06-10T14:05:33;18.98;;;17.23;;
54641;SDS011;40536;53.194;5.728;2023-06-10T14:07:59;20.38;;;18.30;;
54641;SDS011;40536;53.194;5.728;2023-06-10T14:10:25;19.20;;;16.83;;
54641;SDS011;40536;53.194;5.728;2023-06-10T14:12:50;17.30;;;14.85;;
54641;SDS011;40536;53.194;5.728;2023-06-10T14:15:16;19.00;;;17.20;;
54641;SDS011;40536;53.194;5.728;2023-06-10T14:17:42;16.70;;;15.10;;
54641;SDS011;40536;53.194;5.728;2023-06-10T14:20:08;16.65;;;14.93;;
54641;SDS011;40536;53.194;5.728;2023-06-10T14:22:33;20.48;;;18.88;;
54641;SDS011;40536;53.194;5.728;2023-06-10T14:24:59;19.88;;;18.13;;
54641;SDS011;40536;53.194;5.728;2023-06-10T14:27:25;19.05;;;17.52;;
54641;SDS011;40536;53.194;5.728;2023-06-10T14:29:50;20.92;;;19.23;;
54641;SDS011;40536;53.194;5.728;2023-06-10T14:32:16;19.15;;;17.42;;
54641;SDS011;40536;53.194;5.728;2023-06-10T14:34:41;19.90;;;18.23;;
54641;SDS011;40536;53.194;5.728;2023-06-10T14:37:09;21.25;;;19.17;;
54641;SDS011;40536;53.194;5.728;2023-06-10T14:39:35;21.60;;;19.98;;
54641;SDS011;40536;53.194;5.728;2023-06-10T14:42:01;20.45;;;18.65;;
54641;SDS011;40536;53.194;5.728;2023-06-10T14:44:27;22.05;;;20.45;;
54641;SDS011;40536;53.194;5.728;2023-06-10T14:46:52;21.35;;;19.52;;
54641;SDS011;40536;53.194;5.728;2023-06-10T14:49:18;21.83;;;20.20;;